Time;durP1;ratioP1;P1;durP2;ratioP2;P2;SDS_P1;SDS_P2;PMS_P1;PMS_P2;Temp;Humidity;BMP_temperature;BMP_pressure;BME280_temperature;BME280_humidity;BME280_pressure;Samples;Min_cycle;Max_cycle;Signal;HPM_P1;HPM_P2
2023/04/16 00:02:14;;;;;;;0.20;0.20;;;;;;;9.01;100.00;100684.81;4898925;29;20235;-79
2023/04/16 00:04:42;;;;;;;0.20;0.20;;;;;;;9.00;100.00;100691.84;4891872;29;20247;-79
2023/04/16 00:07:09;;;;;;;0.55;0.55;;;;;;;9.02;100.00;100690.13;4895257;29;20287;-79
2023/04/16 00:09:37;;;;;;;0.20;0.20;;;;;;;8.97;100.00;100691.78;4895453;29;20232;-79
2023/04/16 00:12:05;;;;;;;0.10;0.10;;;;;;;8.97;100.00;100690.03;4891227;29;20296;-79
2023/04/16 00:14:32;;;;;;;0.20;0.20;;;;;;;8.95;100.00;100693.50;4894093;29;20244;-79
2023/04/16 00:16:59;;;;;;;0.20;0.20;;;;;;;8.93;100.00;100693.47;4891897;29;20273;-79
2023/04/16 00:19:27;;;;;;;0.15;0.15;;;;;;;8.92;100.00;100696.06;4879270;29;20712;-80
2023/04/16 00:21:55;;;;;;;0.20;0.20;;;;;;;8.90;100.00;100693.41;4891692;29;20304;-80
2023/04/16 00:24:22;;;;;;;0.10;0.10;;;;;;;8.90;100.00;100698.69;4891190;29;20294;-79
2023/04/16 00:26:49;;;;;;;0.20;0.20;;;;;;;8.89;100.00;100688.09;4893908;29;20240;-80
2023/04/16 00:29:17;;;;;;;0.10;0.10;;;;;;;8.89;100.00;100691.63;4894930;29;20239;-79
2023/04/16 00:31:44;;;;;;;0.10;0.10;;;;;;;8.89;100.00;100694.25;4886416;29;20287;-79
2023/04/16 00:34:12;;;;;;;0.20;0.20;;;;;;;8.86;100.00;100691.56;4893450;29;20617;-79
2023/04/16 00:36:39;;;;;;;0.20;0.20;;;;;;;8.86;100.00;100695.94;4879722;29;20259;-79
2023/04/16 00:39:06;;;;;;;0.20;0.20;;;;;;;8.89;100.00;100698.66;4886044;29;20304;-79
2023/04/16 00:41:34;;;;;;;0.10;0.10;;;;;;;8.90;100.00;100705.69;4893487;29;20246;-80
2023/04/16 00:44:02;;;;;;;0.10;0.10;;;;;;;8.88;100.00;100710.94;4892389;29;20351;-79
2023/04/16 00:46:30;;;;;;;0.10;0.10;;;;;;;8.86;100.00;100709.13;4889865;29;20319;-79
2023/04/16 00:48:59;;;;;;;0.20;0.20;;;;;;;8.85;100.00;100712.63;4876186;29;20319;-79
2023/04/16 00:51:26;;;;;;;0.10;0.10;;;;;;;8.84;100.00;100710.84;4896023;29;20250;-79
2023/04/16 00:53:54;;;;;;;0.20;0.20;;;;;;;8.82;100.00;100715.22;4892618;29;20287;-79
2023/04/16 00:56:22;;;;;;;0.10;0.10;;;;;;;8.81;100.00;100716.06;4889276;29;20263;-80
2023/04/16 00:58:50;;;;;;;0.10;0.10;;;;;;;8.81;100.00;100724.88;4875049;29;20235;-80
2023/04/16 01:01:17;;;;;;;0.20;0.20;;;;;;;8.84;100.00;100729.31;4895161;29;20322;-80
2023/04/16 01:03:47;;;;;;;0.22;0.22;;;8.70;99.90;;;8.81;100.00;100734.53;4896386;29;20298;-79
2023/04/16 01:06:17;;;;;;;0.85;0.85;;;8.60;99.90;;;8.79;100.00;100730.97;4912174;29;20242;-80
2023/04/16 01:08:45;;;;;;;0.10;0.10;;;8.70;99.90;;;8.77;100.00;100736.22;4909432;29;20259;-80
2023/04/16 01:11:14;;;;;;;0.20;0.20;;;8.70;99.90;;;8.80;100.00;100751.19;4907457;29;20263;-80
2023/04/16 01:13:43;;;;;;;0.20;0.20;;;;;;;8.82;100.00;100747.75;4913331;29;20326;-79
2023/04/16 01:16:11;;;;;;;0.20;0.20;;;8.70;99.90;;;8.80;100.00;100752.09;4911409;29;20266;-80
2023/04/16 01:18:39;;;;;;;0.20;0.20;;;;;;;8.77;100.00;100754.66;4910081;29;20246;-80
2023/04/16 01:21:06;;;;;;;0.20;0.20;;;;;;;8.79;100.00;100754.69;4909645;29;20270;-79
2023/04/16 01:23:34;;;;;;;0.20;0.20;;;;;;;8.80;100.00;100767.03;4909868;29;20240;-80
2023/04/16 01:26:02;;;;;;;0.10;0.10;;;;;;;8.80;100.00;100764.38;4909265;29;20705;-80
2023/04/16 01:28:29;;;;;;;0.10;0.10;;;;;;;8.80;100.00;100773.19;4911513;29;20262;-79
2023/04/16 01:30:56;;;;;;;0.10;0.10;;;;;;;8.86;100.00;100768.03;4907386;29;20665;-80
2023/04/16 01:33:24;;;;;;;0.25;0.25;;;;;;;8.85;100.00;100760.09;4910904;29;20237;-79
2023/04/16 01:35:51;;;;;;;0.10;0.10;;;;;;;8.87;100.00;100768.94;4914128;29;20695;-79
2023/04/16 01:38:19;;;;;;;0.20;0.20;;;;;;;8.86;100.00;100769.78;4895193;29;20306;-80
2023/04/16 01:40:46;;;;;;;0.10;0.10;;;;;;;8.86;100.00;100769.78;4912307;29;20266;-79
2023/04/16 01:43:14;;;;;;;0.10;0.10;;;;;;;8.84;100.00;100775.03;4908082;29;20267;-79
2023/04/16 01:45:42;;;;;;;0.10;0.10;;;8.80;99.90;;;8.87;100.00;100771.56;4908328;29;20259;-80
2023/04/16 01:48:09;;;;;;;0.10;0.10;;;;;;;8.88;100.00;100776.00;4906548;29;20239;-80
2023/04/16 01:50:37;;;;;;;1.55;0.65;;;;;;;8.87;100.00;100776.84;4893986;29;20299;-79
2023/04/16 01:53:04;;;;;;;0.10;0.10;;;;;;;8.84;100.00;100768.88;4909861;29;20314;-80
2023/04/16 01:55:34;;;;;;;0.10;0.10;;;8.70;99.90;;;8.87;100.00;100769.81;4899463;29;20234;-79
2023/04/16 01:58:01;;;;;;;0.20;0.20;;;;;;;8.89;100.00;100775.13;4916891;29;20302;-80
2023/04/16 02:00:29;;;;;;;0.10;0.10;;;;;;;8.87;100.00;100771.56;4913740;29;20235;-79
2023/04/16 02:02:56;;;;;;;0.20;0.20;;;;;;;8.83;100.00;100769.72;4900530;29;20239;-79
2023/04/16 02:05:24;;;;;;;0.10;0.10;;;;;;;8.85;100.00;100776.81;4914464;29;20262;-80
2023/04/16 02:07:52;;;;;;;0.13;0.13;;;;;;;8.83;100.00;100786.44;4912158;29;20656;-80
2023/04/16 02:10:19;;;;;;;0.10;0.10;;;;;;;8.81;100.00;100785.53;4914617;29;20262;-79
2023/04/16 02:12:46;;;;;;;0.10;0.10;;;8.70;99.90;;;8.82;100.00;100789.03;4912576;29;20254;-79
2023/04/16 02:15:15;;;;;;;0.10;0.10;;;;;;;8.84;100.00;100789.97;4911774;29;20314;-79
2023/04/16 02:17:42;;;;;;;0.10;0.10;;;;;;;8.82;100.00;100795.22;4910633;29;20436;-80
2023/04/16 02:20:10;;;;;;;0.20;0.20;;;;;;;8.78;100.00;100789.84;4898190;29;20241;-80
2023/04/16 02:22:37;;;;;;;0.17;0.17;;;;;;;8.79;100.00;100794.25;4904943;29;20327;-79
2023/04/16 02:25:05;;;;;;;0.20;0.20;;;;;;;8.78;100.00;100792.47;4895428;29;20239;-79
2023/04/16 02:27:33;;;;;;;0.73;0.73;;;;;;;8.75;100.00;100802.97;4910557;29;20322;-79
2023/04/16 02:30:01;;;;;;;0.20;0.20;;;;;;;8.76;100.00;100799.47;4915764;29;20239;-79
2023/04/16 02:32:29;;;;;;;0.10;0.10;;;;;;;8.75;100.00;100810.88;4912683;29;20231;-80
2023/04/16 02:34:56;;;;;;;0.15;0.15;;;;;;;8.75;100.00;100808.22;4917273;29;20278;-80
2023/04/16 02:37:24;;;;;;;0.20;0.20;;;;;;;8.73;100.00;100810.84;4913089;29;20330;-79
2023/04/16 02:39:52;;;;;;;0.40;0.40;;;8.60;99.90;;;8.76;100.00;100817.91;4916862;29;20310;-80
2023/04/16 02:42:19;;;;;;;0.20;0.20;;;;;;;8.76;100.00;100817.91;4912435;29;20266;-79
2023/04/16 02:44:46;;;;;;;0.10;0.10;;;;;;;8.74;100.00;100824.91;4912343;29;20764;-80
2023/04/16 02:47:14;;;;;;;0.20;0.20;;;;;;;8.73;100.00;100825.75;4909515;29;20321;-80
2023/04/16 02:49:41;;;;;;;0.65;0.65;;;;;;;8.73;100.00;100818.75;4914942;29;20261;-80
2023/04/16 02:52:09;;;;;;;0.10;0.10;;;;;;;8.73;100.00;100828.41;4914049;29;20254;-79
2023/04/16 02:54:36;;;;;;;0.20;0.20;;;;;;;8.73;100.00;100825.75;4910642;29;20331;-80
2023/04/16 02:57:04;;;;;;;0.10;0.10;;;;;;;8.73;100.00;100834.56;4913248;29;20235;-80
2023/04/16 02:59:32;;;;;;;0.20;0.20;;;;;;;8.73;100.00;100841.59;4913215;29;20227;-79
2023/04/16 03:02:00;;;;;;;0.20;0.20;;;;;;;8.71;100.00;100832.75;4910334;29;20259;-80
2023/04/16 03:04:27;;;;;;;0.20;0.20;;;;;;;8.68;100.00;100832.69;4912350;29;20643;-80
2023/04/16 03:06:55;;;;;;;0.20;0.20;;;;;;;8.67;100.00;100837.06;4912833;29;20563;-79
2023/04/16 03:09:22;;;;;;;0.20;0.20;;;;;;;8.66;100.00;100838.81;4912994;29;20235;-80
2023/04/16 03:11:49;;;;;;;0.10;0.10;;;;;;;8.66;100.00;100846.72;4910367;29;20285;-81
2023/04/16 03:14:17;;;;;;;0.10;0.10;;;;;;;8.65;100.00;100837.03;4913068;29;20258;-80
2023/04/16 03:16:45;;;;;;;0.20;0.20;;;;;;;8.66;100.00;100837.91;4914743;29;20254;-80
2023/04/16 03:19:12;;;;;;;0.20;0.20;;;;;;;8.67;100.00;100842.34;4914565;29;20254;-80
2023/04/16 03:21:39;;;;;;;0.10;0.10;;;;;;;8.65;100.00;100844.03;4912652;29;20280;-81
2023/04/16 03:24:07;;;;;;;0.17;0.17;;;;;;;8.66;100.00;100846.72;4909503;29;20303;-80
2023/04/16 03:26:34;;;;;;;1.15;1.05;;;;;;;8.64;100.00;100848.44;4911522;29;20246;-80
2023/04/16 03:29:02;;;;;;;0.15;0.15;;;;;;;8.65;100.00;100854.59;4913977;29;20740;-80
2023/04/16 03:31:29;;;;;;;0.10;0.10;;;;;;;8.64;100.00;100858.97;4908023;29;20235;-79
2023/04/16 03:33:57;;;;;;;0.20;0.20;;;;;;;8.66;100.00;100853.72;4912721;29;20703;-81
2023/04/16 03:36:26;;;;;;;0.20;0.20;;;;;;;8.66;100.00;100867.81;4911745;29;20243;-80
2023/04/16 03:38:53;;;;;;;0.20;0.20;;;;;;;8.65;100.00;100863.38;4912255;29;20238;-80
2023/04/16 03:41:20;;;;;;;0.20;0.20;;;;;;;8.60;100.00;100867.66;4911358;29;20235;-80
2023/04/16 03:43:48;;;;;;;0.20;0.20;;;;;;;8.61;100.00;100873.81;4909546;29;20239;-80
2023/04/16 03:46:15;;;;;;;0.30;0.30;;;;;;;8.60;100.00;100858.88;4910870;29;20314;-80
2023/04/16 03:48:43;;;;;;;0.20;0.20;;;;;;;8.57;100.00;100870.22;4912932;29;20239;-79
2023/04/16 03:51:10;;;;;;;0.20;0.20;;;;;;;8.58;100.00;100876.38;4910127;29;20326;-80
2023/04/16 03:53:37;;;;;;;0.13;0.13;;;;;;;8.56;100.00;100880.75;4912377;29;20314;-80
2023/04/16 03:56:05;;;;;;;0.15;0.15;;;;;;;8.54;100.00;100887.72;4912936;29;20751;-80
2023/04/16 03:58:32;;;;;;;0.10;0.10;;;;;;;8.54;100.00;100887.72;4909457;29;20307;-80
2023/04/16 04:01:00;;;;;;;0.15;0.15;;;;;;;8.53;100.00;100893.84;4906289;29;20270;-79
2023/04/16 04:03:27;;;;;;;0.10;0.10;;;;;;;8.53;100.00;100888.56;4909877;29;20242;-80
2023/04/16 04:05:55;;;;;;;0.10;0.10;;;;;;;8.49;100.00;100903.41;4910088;29;20231;-79
2023/04/16 04:08:23;;;;;;;0.10;0.10;;;;;;;8.49;100.00;100895.50;4892865;29;20263;-79
2023/04/16 04:10:50;;;;;;;0.17;0.17;;;;;;;8.49;100.00;100903.41;4910094;29;20322;-80
2023/04/16 04:13:18;;;;;;;0.10;0.10;;;;;;;8.50;100.00;100914.84;4907083;29;20285;-80
2023/04/16 04:15:45;;;;;;;0.17;0.17;;;;;;;8.48;100.00;100920.09;4908968;29;20299;-79
2023/04/16 04:18:12;;;;;;;0.20;0.20;;;;;;;8.49;100.00;100918.34;4910211;29;20302;-80
2023/04/16 04:20:40;;;;;;;0.20;0.20;;;;;;;8.48;100.00;100913.94;4909960;29;20231;-79
2023/04/16 04:23:08;;;;;;;0.75;0.75;;;;;;;8.47;100.00;100928.84;4895273;29;20295;-80
2023/04/16 04:25:35;;;;;;;0.20;0.20;;;;;;;8.50;100.00;100923.66;4909743;29;20246;-80
2023/04/16 04:28:03;;;;;;;0.10;0.10;;;;;;;8.49;100.00;100927.16;4914327;29;20265;-80
2023/04/16 04:30:30;;;;;;;0.10;0.10;;;;;;;8.49;100.00;100926.25;4909552;29;20235;-80
2023/04/16 04:32:58;;;;;;;0.10;0.10;;;;;;;8.51;100.00;100929.81;4913120;29;20255;-80
2023/04/16 04:35:25;;;;;;;0.20;0.20;;;;;;;8.51;100.00;100925.44;4893995;29;20227;-80
2023/04/16 04:37:52;;;;;;;0.10;0.10;;;;;;;8.51;100.00;100924.53;4909443;29;20303;-80
2023/04/16 04:40:20;;;;;;;0.10;0.10;;;;;;;8.52;100.00;100923.69;4907112;29;20227;-80
2023/04/16 04:42:47;;;;;;;0.40;0.40;;;;;;;8.54;100.00;100924.63;4910029;29;20257;-80
2023/04/16 04:45:15;;;;;;;0.20;0.20;;;;;;;8.56;100.00;100915.91;4912884;29;20231;-80
2023/04/16 04:47:43;;;;;;;0.13;0.13;;;;;;;8.55;100.00;100919.38;4907668;29;20247;-79
2023/04/16 04:50:10;;;;;;;0.10;0.10;;;;;;;8.54;100.00;100914.97;4912657;29;20235;-79
2023/04/16 04:52:38;;;;;;;0.20;0.20;;;;;;;8.55;100.00;100919.38;4910531;29;20242;-80
2023/04/16 04:55:05;;;;;;;0.10;0.10;;;;;;;8.58;100.00;100911.56;4907722;29;20259;-80
2023/04/16 04:57:33;;;;;;;0.10;0.10;;;;;;;8.59;100.00;100899.25;4908897;29;20231;-80
2023/04/16 05:00:03;;;;;;;0.32;0.32;;;;;;;8.59;100.00;100886.97;4909625;29;20330;-80
2023/04/16 05:02:30;;;;;;;0.20;0.20;;;;;;;8.64;100.00;100889.72;4910188;29;20688;-79
2023/04/16 05:04:58;;;;;;;0.20;0.20;;;;;;;8.67;100.00;100884.53;4880099;29;20242;-80
2023/04/16 05:07:25;;;;;;;0.10;0.10;;;;;;;8.68;100.00;100878.38;4908062;29;20227;-80
2023/04/16 05:09:52;;;;;;;0.20;0.20;;;;;;;8.69;100.00;100876.66;4910252;29;20291;-80
2023/04/16 05:12:20;;;;;;;0.10;0.10;;;;;;;8.72;100.00;100879.34;4909955;29;20799;-80
2023/04/16 05:14:47;;;;;;;0.65;0.40;;;;;;;8.71;100.00;100870.56;4909796;29;20330;-81
2023/04/16 05:17:15;;;;;;;0.17;0.17;;;;;;;8.74;100.00;100867.09;4909570;29;20304;-79
2023/04/16 05:19:42;;;;;;;0.10;0.10;;;;;;;8.75;100.00;100851.31;4910135;29;20313;-80
2023/04/16 05:22:10;;;;;;;0.10;0.10;;;;;;;8.76;100.00;100852.19;4908502;29;20262;-79
2023/04/16 05:24:37;;;;;;;0.10;0.10;;;;;;;8.78;100.00;100842.56;4912869;29;20261;-80
2023/04/16 05:27:05;;;;;;;0.10;0.10;;;;;;;8.78;100.00;100840.84;4910855;29;20249;-80
2023/04/16 05:29:32;;;;;;;0.20;0.20;;;;;;;8.80;100.00;100840.88;4909647;29;20231;-80
2023/04/16 05:32:00;;;;;;;0.98;0.98;;;;;;;8.81;100.00;100834.72;4910857;29;20314;-81
2023/04/16 05:34:28;;;;;;;0.20;0.20;;;;;;;8.80;100.00;100836.47;4893479;29;20239;-79
2023/04/16 05:36:55;;;;;;;0.20;0.20;;;;;;;8.83;100.00;100831.28;4910172;29;20299;-79
2023/04/16 05:39:23;;;;;;;0.20;0.20;;;;;;;8.86;100.00;100825.19;4908108;29;20633;-82
2023/04/16 05:41:50;;;;;;;0.20;0.20;;;;;;;8.85;100.00;100832.19;4909416;29;20315;-83
2023/04/16 05:44:18;;;;;;;0.10;0.10;;;;;;;8.90;100.00;100814.72;4908894;29;20263;-81
2023/04/16 05:46:45;;;;;;;0.20;0.20;;;;;;;8.95;100.00;100823.63;4911584;29;20231;-83
2023/04/16 05:49:12;;;;;;;0.20;0.20;;;;;;;8.97;100.00;100821.91;4909951;29;20267;-81
2023/04/16 05:51:40;;;;;;;0.20;0.20;;;;;;;9.01;100.00;100819.34;4908175;29;20239;-82
2023/04/16 05:54:07;;;;;;;0.10;0.10;;;;;;;9.04;100.00;100822.03;4893531;29;20255;-84
2023/04/16 05:56:35;;;;;;;0.80;0.52;;;;;;;9.04;100.00;100815.03;4893574;29;20275;-84
2023/04/16 05:59:02;;;;;;;0.10;0.10;;;;;;;9.04;100.00;100806.22;4906378;29;20231;-85
2023/04/16 06:01:30;;;;;;;0.10;0.10;;;;;;;9.05;100.00;100810.63;4907484;29;20230;-84
2023/04/16 06:04:00;;;;;;;0.10;0.10;;;;;;;9.04;100.00;100809.75;4910993;29;20298;-83
2023/04/16 06:06:28;;;;;;;0.10;0.10;;;;;;;9.03;100.00;100810.59;4909493;29;20262;-83
2023/04/16 06:08:55;;;;;;;0.20;0.20;;;;;;;9.04;100.00;100809.75;4908919;29;20246;-84
2023/04/16 06:11:23;;;;;;;0.20;0.20;;;;;;;9.04;100.00;100801.84;4913512;29;20318;-83
2023/04/16 06:13:50;;;;;;;0.13;0.13;;;;;;;9.10;100.00;100798.44;4895859;29;20326;-83
2023/04/16 06:16:18;;;;;;;0.40;0.40;;;;;;;9.13;100.00;100802.06;4911389;29;20397;-84
2023/04/16 06:18:45;;;;;;;0.20;0.20;;;;;;;9.13;100.00;100795.88;4911809;29;20236;-84
2023/04/16 06:21:12;;;;;;;0.50;0.50;;;9.00;99.90;;;9.14;100.00;100800.31;4912489;29;20235;-83
2023/04/16 06:23:40;;;;;;;0.20;0.20;;;;;;;9.20;100.00;100796.06;4911200;29;20239;-84
2023/04/16 06:26:07;;;;;;;0.10;0.10;;;;;;;9.24;100.00;100799.63;4915750;29;20231;-83
2023/04/16 06:28:35;;;;;;;0.30;0.30;;;;;;;9.27;100.00;100789.16;4916985;29;20278;-84
2023/04/16 06:31:03;;;;;;;0.73;0.65;;;;;;;9.30;100.00;100795.38;4912961;29;20243;-84
2023/04/16 06:33:30;;;;;;;0.10;0.10;;;;;;;9.31;100.00;100790.97;4915081;29;20242;-83
2023/04/16 06:35:58;;;;;;;0.10;0.10;;;;;;;9.32;100.00;100791.88;4915630;29;20290;-82
2023/04/16 06:38:25;;;;;;;0.40;0.40;;;;;;;9.27;100.00;100790.03;4913731;29;20673;-82
2023/04/16 06:40:53;;;;;;;0.52;0.52;;;;;;;9.24;100.00;100789.97;4911087;29;20269;-82
2023/04/16 06:43:20;;;;;;;0.40;0.40;;;;;;;9.24;100.00;100787.34;4882924;29;20253;-82
2023/04/16 06:45:48;;;;;;;0.10;0.10;;;;;;;9.25;100.00;100791.75;4883411;29;20270;-82
2023/04/16 06:48:16;;;;;;;0.20;0.20;;;;;;;9.25;100.00;100794.38;4915200;29;20667;-84
2023/04/16 06:50:43;;;;;;;0.10;0.10;;;;;;;9.23;100.00;100790.84;4911465;29;20362;-82
2023/04/16 06:53:11;;;;;;;0.10;0.10;;;;;;;9.27;100.00;100797.94;4909782;29;20247;-82
2023/04/16 06:55:38;;;;;;;0.15;0.15;;;;;;;9.27;100.00;100800.59;4909450;29;20228;-82
2023/04/16 06:58:06;;;;;;;0.20;0.20;;;;;;;9.27;100.00;100805.88;4912930;29;20234;-83
2023/04/16 07:00:33;;;;;;;0.20;0.20;;;;;;;9.32;100.00;100805.97;4909117;29;20756;-84
2023/04/16 07:03:01;;;;;;;0.10;0.10;;;;;;;9.33;100.00;100807.75;4911625;29;20246;-83
2023/04/16 07:05:28;;;;;;;0.10;0.10;;;;;;;9.38;100.00;100806.06;4912784;29;20243;-83
2023/04/16 07:07:56;;;;;;;0.20;0.20;;;;;;;9.36;100.00;100809.56;4912161;29;20235;-83
2023/04/16 07:10:24;;;;;;;0.20;0.20;;;;;;;9.38;100.00;100818.38;4912336;29;20241;-83
2023/04/16 07:12:51;;;;;;;0.10;0.10;;;;;;;9.43;100.00;100816.72;4895310;29;20247;-84
2023/04/16 07:15:22;;;;;;;1.48;1.17;;;9.30;99.90;;;9.36;100.00;100814.81;4910823;23;20239;-76
2023/04/16 07:17:49;;;;;;;0.10;0.10;;;;;;;9.42;100.00;100815.84;4915663;29;20235;-78
2023/04/16 07:20:17;;;;;;;0.10;0.10;;;;;;;9.41;100.00;100821.09;4915098;29;20266;-79
2023/04/16 07:22:44;;;;;;;0.10;0.10;;;;;;;9.50;100.00;100816.88;4913404;29;20321;-79
2023/04/16 07:25:12;;;;;;;0.10;0.10;;;9.40;99.90;;;9.56;100.00;100819.63;4910828;29;20262;-78
2023/04/16 07:27:40;;;;;;;0.65;0.65;;;9.30;99.90;;;9.61;100.00;100817.09;4908088;29;20238;-77
2023/04/16 07:30:08;;;;;;;0.10;0.10;;;9.50;99.90;;;9.69;100.00;100814.59;4909726;29;20242;-76
2023/04/16 07:32:35;;;;;;;0.10;0.10;;;;;;;9.86;100.00;100821.06;4911628;29;20266;-75
2023/04/16 07:35:03;;;;;;;0.10;0.10;;;;;;;9.89;100.00;100815.84;4913084;29;20247;-75
2023/04/16 07:37:30;;;;;;;0.10;0.10;;;;;;;9.89;100.00;100816.72;4912857;29;20321;-77
2023/04/16 07:39:59;;;;;;;0.43;0.43;;;;;;;9.93;100.00;100809.75;4910502;29;20270;-78
2023/04/16 07:42:27;;;;;;;0.10;0.10;;;9.80;99.90;;;10.01;100.00;100804.59;4906237;29;20247;-79
2023/04/16 07:44:54;;;;;;;0.20;0.20;;;;;;;10.13;100.00;100807.44;4904393;29;20464;-77
2023/04/16 07:47:22;;;;;;;0.45;0.45;;;;;;;10.23;100.00;100810.28;4907872;29;20243;-76
2023/04/16 07:49:49;;;;;;;0.20;0.20;;;10.10;99.90;;;10.15;100.00;100801.31;4908839;29;20300;-73
2023/04/16 07:52:17;;;;;;;0.10;0.10;;;9.90;99.90;;;10.06;100.00;100787.06;4907055;29;20243;-72
2023/04/16 07:54:44;;;;;;;0.10;0.10;;;;;;;10.28;100.00;100791.88;4908222;29;20257;-74
2023/04/16 07:57:12;;;;;;;0.10;0.10;;;;;;;10.20;100.00;100786.47;4910268;29;20266;-78
2023/04/16 07:59:39;;;;;;;0.10;0.10;;;;;;;10.14;100.00;100780.16;4906596;29;20231;-76
2023/04/16 08:02:08;;;;;;;0.10;0.10;;;;;;;10.15;100.00;100780.16;4905751;29;20247;-77
2023/04/16 08:04:35;;;;;;;0.13;0.13;;;;;;;10.16;100.00;100779.31;4903511;29;20239;-75
2023/04/16 08:07:03;;;;;;;0.10;0.10;;;;;;;10.17;100.00;100780.19;4904571;28;20249;-78
2023/04/16 08:09:30;;;;;;;0.20;0.20;;;;;;;10.33;100.00;100787.53;4906479;29;20317;-79
2023/04/16 08:11:59;;;;;;;0.10;0.10;;;10.10;99.90;;;10.26;100.00;100780.38;4905187;29;20246;-79
2023/04/16 08:14:28;;;;;;;0.15;0.15;;;;;;;10.32;100.00;100777.84;4906613;29;20317;-77
2023/04/16 08:16:58;;;;;;;0.10;0.10;;;;;;;10.51;100.00;100790.50;4906565;29;20362;-77
2023/04/16 08:19:27;;;;;;;0.10;0.10;;;;;;;10.33;100.00;100766.38;4893234;29;20780;-77
2023/04/16 08:21:55;;;;;;;0.10;0.10;;;10.10;99.90;;;10.24;100.00;100763.59;4907097;29;20326;-77
2023/04/16 08:24:22;;;;;;;0.20;0.20;;;;;;;10.40;100.00;100765.66;4907500;29;20577;-77
2023/04/16 08:26:50;;;;;;;0.40;0.40;;;10.30;99.90;;;10.46;100.00;100776.31;4907169;29;20322;-77
2023/04/16 08:29:19;;;;;;;0.00;0.00;;;;;;;10.51;100.00;100779.91;4905007;29;20326;-77
2023/04/16 08:31:47;;;;;;;0.15;0.15;;;;;;;10.37;100.00;100768.22;4906590;29;20743;-77
2023/04/16 08:34:15;;;;;;;0.10;0.10;;;;;;;10.33;100.00;100773.44;4908583;29;20816;-77
2023/04/16 08:36:43;;;;;;;0.20;0.20;;;;;;;10.41;100.00;100788.56;4904236;29;20238;-77
2023/04/16 08:39:10;;;;;;;0.15;0.15;;;;;;;10.29;100.00;100783.06;4906771;29;20266;-79
2023/04/16 08:41:45;;;;;;;0.10;0.10;;;10.20;99.90;;;10.32;100.00;100793.69;4907064;29;20237;-76
2023/04/16 08:44:27;;;;;;;0.60;0.60;;;10.20;99.90;;;10.38;100.00;100801.72;4905744;29;20239;-75
2023/04/16 08:46:57;;;;;;;0.10;0.10;;;;;;;10.35;100.00;100800.78;4904222;29;20242;-73
2023/04/16 08:49:26;;;;;;;0.10;0.10;;;10.30;99.90;;;10.47;100.00;100804.53;4904671;29;20254;-75
2023/04/16 08:51:56;;;;;;;1.15;1.05;;;10.40;99.90;;;10.59;100.00;100811.78;4904585;29;20321;-77
2023/04/16 08:54:31;;;;;;;0.10;0.10;;;;;;;10.47;100.00;100793.06;4907895;29;20322;-77
2023/04/16 08:56:59;;;;;;;0.20;0.20;;;;;;;10.51;100.00;100785.22;4904347;29;20462;-77
2023/04/16 08:59:26;;;;;;;2.00;1.00;;;;;;;10.63;100.00;100779.22;4890435;29;20239;-78
2023/04/16 09:01:58;;;;;;;0.10;0.10;;;12.30;99.90;;;10.63;100.00;100765.97;4901352;29;20227;-75
2023/04/16 09:04:29;;;;;;;0.10;0.10;;;10.50;99.90;;;10.74;100.00;100774.06;4908976;29;20239;-79
2023/04/16 09:06:58;;;;;;;0.95;0.95;;;10.50;99.90;;;10.65;100.00;100755.44;4909494;28;20259;-77
2023/04/16 09:09:26;;;;;;;0.20;0.20;;;;;;;10.85;100.00;100773.34;4906131;29;20239;-77
2023/04/16 09:11:54;;;;;;;0.10;0.10;;;;;;;10.86;100.00;100774.22;4906634;29;20235;-79
2023/04/16 09:14:22;;;;;;;0.73;0.73;;;;;;;10.62;100.00;100763.31;4911695;29;20231;-79
2023/04/16 09:16:53;;;;;;;2.13;0.70;;;10.60;99.90;;;10.78;100.00;100787.34;4918286;29;20231;-79
2023/04/16 09:19:21;;;;;;;0.10;0.10;;;;;;;10.52;100.00;100779.06;4904798;29;20710;-77
2023/04/16 09:21:48;;;;;;;0.03;0.03;;;;;;;10.37;100.00;100786.72;4904630;29;20235;-76
2023/04/16 09:24:16;;;;;;;0.10;0.10;;;;;;;10.40;100.00;100801.75;4904139;29;20266;-77
2023/04/16 09:26:43;;;;;;;0.10;0.10;;;;;;;10.38;100.00;100830.81;4905793;29;20285;-77
2023/04/16 09:29:10;;;;;;;0.10;0.10;;;;;;;10.24;100.00;100835.88;4906649;29;20237;-77
2023/04/16 09:31:38;;;;;;;0.75;0.75;;;;;;;10.15;100.00;100855.94;4907165;29;20322;-77
2023/04/16 09:34:07;;;;;;;0.10;0.10;;;10.00;99.90;;;10.21;100.00;100891.31;4908654;29;20262;-76
2023/04/16 09:36:36;;;;;;;0.13;0.13;;;10.00;99.90;;;10.11;100.00;100917.53;4904324;29;20243;-76
2023/04/16 09:39:03;;;;;;;0.10;0.10;;;;;;;10.14;100.00;100939.59;4904474;29;20239;-77
2023/04/16 09:41:34;;;;;;;0.20;0.20;;;10.00;99.90;;;10.13;100.00;100951.03;4911230;29;20235;-76
2023/04/16 09:44:03;;;;;;;0.10;0.10;;;10.00;99.90;;;10.08;100.00;100965.03;4906960;29;20271;-76
2023/04/16 09:46:35;;;;;;;0.40;0.40;;;9.90;99.90;;;10.13;100.00;100984.50;4910694;29;20243;-76
2023/04/16 09:49:16;;;;;;;0.10;0.10;;;9.90;99.90;;;9.97;100.00;100985.06;4908173;29;20235;-78
2023/04/16 09:51:47;;;;;;;0.10;0.10;;;9.80;99.90;;;10.03;100.00;101004.56;4907895;29;20230;-76
2023/04/16 09:54:15;;;;;;;0.10;0.10;;;;;;;10.06;100.00;101027.53;4909037;29;20239;-76
2023/04/16 09:56:47;;;;;;;0.50;0.50;;;9.90;99.90;;;10.03;100.00;101014.25;4910055;29;20281;-76
2023/04/16 09:59:22;;;;;;;0.10;0.10;;;9.90;99.90;;;10.08;100.00;101023.16;4890077;29;20230;-77
2023/04/16 10:01:51;;;;;;;0.10;0.10;;;;;;;10.23;100.00;101039.38;4906112;29;20301;-74
2023/04/16 10:04:50;;;;;;;0.17;0.17;;;10.20;99.90;;;10.37;100.00;101044.94;4907610;29;20246;-76
2023/04/16 10:07:18;;;;;;;0.30;0.30;;;10.20;99.90;;;10.37;100.00;101044.94;4907109;29;20709;-75
2023/04/16 10:09:47;;;;;;;0.10;0.10;;;10.00;99.90;;;10.12;100.00;101040.88;4905628;28;20346;-75
2023/04/16 10:12:15;;;;;;;0.10;0.10;;;10.10;99.90;;;10.31;100.00;101050.09;4909333;29;20243;-75
2023/04/16 10:14:42;;;;;;;0.10;0.10;;;;;;;10.25;100.00;101053.50;4909965;29;20307;-75
2023/04/16 10:17:10;;;;;;;0.10;0.10;;;;;;;10.24;100.00;101054.38;4912345;29;20846;-73
2023/04/16 10:19:37;;;;;;;0.10;0.10;;;;;;;10.19;100.00;101063.94;4914075;29;20246;-74
2023/04/16 10:22:05;;;;;;;0.10;0.10;;;;;;;10.04;100.00;101068.88;4925935;28;20423;-74
2023/04/16 10:24:33;;;;;;;0.17;0.17;;;10.00;99.90;;;10.14;100.00;101082.34;4913211;28;20238;-74
2023/04/16 10:27:02;;;;;;;0.30;0.30;;;10.00;99.90;;;10.08;100.00;101083.94;4911924;28;20235;-73
2023/04/16 10:29:30;;;;;;;0.10;0.10;;;10.00;99.90;;;10.18;100.00;101086.81;4912830;29;20234;-74
2023/04/16 10:31:58;;;;;;;0.10;0.10;;;;;;;10.20;100.00;101105.38;4913813;29;20731;-74
2023/04/16 10:34:26;;;;;;;0.10;0.10;;;;;;;10.14;100.00;101105.22;4910519;29;20254;-75
2023/04/16 10:36:54;;;;;;;0.30;0.30;;;10.10;99.90;;;10.17;100.00;101121.16;4909124;29;20327;-75
2023/04/16 10:39:24;;;;;;;0.13;0.13;;;10.00;99.90;;;10.19;100.00;101127.34;4913165;29;20246;-74
2023/04/16 10:42:11;;;;;;;0.10;0.10;;;9.90;99.90;;;10.11;100.00;101135.13;4911608;29;20314;-76
2023/04/16 10:44:40;;;;;;;0.10;0.10;;;10.00;99.90;;;10.12;100.00;101146.59;4914002;29;20316;-75
2023/04/16 10:47:12;;;;;;;0.10;0.10;;;9.90;99.90;;;10.08;100.00;101139.44;4915021;28;20234;-74
2023/04/16 10:49:41;;;;;;;0.55;0.55;;;9.90;99.90;;;10.07;100.00;101141.19;4915060;28;20293;-73
2023/04/16 10:52:15;;;;;;;0.35;0.35;;;9.90;99.90;;;10.07;100.00;101138.56;4912139;28;20231;-74
2023/04/16 10:54:43;;;;;;;0.10;0.10;;;;;;;10.03;100.00;101143.75;4912299;29;20326;-74
2023/04/16 10:57:16;;;;;;;0.10;0.10;;;9.90;99.90;;;10.06;100.00;101147.34;4912568;29;20251;-74
2023/04/16 10:59:45;;;;;;;0.10;0.10;;;9.90;99.90;;;10.03;100.00;101149.91;4910611;29;20317;-74
2023/04/16 11:02:16;;;;;;;0.10;0.10;;;9.90;99.90;;;10.00;100.00;101135.75;4908242;28;20255;-73
2023/04/16 11:04:50;;;;;;;0.17;0.17;;;;;;;10.03;100.00;101146.38;4902335;29;20250;-76
2023/04/16 11:07:20;;;;;;;0.10;0.10;;;9.80;99.90;;;10.00;100.00;101144.56;4909455;28;20231;-74
2023/04/16 11:10:01;;;;;;;0.10;0.10;;;9.90;99.90;;;10.04;100.00;101137.59;4905240;29;20243;-74
2023/04/16 11:12:28;;;;;;;0.10;0.10;;;;;;;10.07;100.00;101143.84;4888503;29;20245;-74